sensor_id;sensor_type;location;lat;lon;timestamp;pressure;altitude;pressure_sealevel;temperature;humidity
77077;BME280;66003;52.286;104.306;2023-12-20T00:00:02;99373.97;;;-32.31;33.11
77077;BME280;66003;52.286;104.306;2023-12-20T00:02:30;99380.63;;;-32.38;33.14
77077;BME280;66003;52.286;104.306;2023-12-20T00:04:56;99362.75;;;-32.59;33.04
77077;BME280;66003;52.286;104.306;2023-12-20T00:07:22;99370.22;;;-32.71;33.04
77077;BME280;66003;52.286;104.306;2023-12-20T00:09:48;99357.66;;;-32.68;32.81
77077;BME280;66003;52.286;104.306;2023-12-20T00:12:14;99364.47;;;-32.56;33.50
77077;BME280;66003;52.286;104.306;2023-12-20T00:14:41;99362.78;;;-32.56;33.42
77077;BME280;66003;52.286;104.306;2023-12-20T00:17:07;99358.50;;;-32.67;33.12
77077;BME280;66003;52.286;104.306;2023-12-20T00:19:33;99364.25;;;-32.81;32.78
77077;BME280;66003;52.286;104.306;2023-12-20T00:21:59;99358.31;;;-32.86;33.15
77077;BME280;66003;52.286;104.306;2023-12-20T00:24:26;99363.28;;;-32.90;32.75
77077;BME280;66003;52.286;104.306;2023-12-20T00:26:52;99355.47;;;-33.13;33.12
77077;BME280;66003;52.286;104.306;2023-12-20T00:29:18;99370.66;;;-33.09;32.92
77077;BME280;66003;52.286;104.306;2023-12-20T00:31:44;99359.63;;;-33.17;33.19
77077;BME280;66003;52.286;104.306;2023-12-20T00:34:10;99360.63;;;-33.04;33.35
77077;BME280;66003;52.286;104.306;2023-12-20T00:36:36;99354.78;;;-33.01;33.30
77077;BME280;66003;52.286;104.306;2023-12-20T00:39:03;99359.81;;;-33.01;33.16
77077;BME280;66003;52.286;104.306;2023-12-20T00:41:30;99360.72;;;-32.95;33.01
77077;BME280;66003;52.286;104.306;2023-12-20T00:43:56;99358.31;;;-32.87;33.09
77077;BME280;66003;52.286;104.306;2023-12-20T00:46:22;99360.09;;;-32.77;33.20
77077;BME280;66003;52.286;104.306;2023-12-20T00:48:48;99356.00;;;-32.67;32.89
77077;BME280;66003;52.286;104.306;2023-12-20T00:51:14;99365.31;;;-32.62;32.82
77077;BME280;66003;52.286;104.306;2023-12-20T00:53:41;99360.19;;;-32.68;32.38
77077;BME280;66003;52.286;104.306;2023-12-20T00:56:07;99367.84;;;-32.60;32.53
77077;BME280;66003;52.286;104.306;2023-12-20T00:58:34;99364.41;;;-32.67;32.92
77077;BME280;66003;52.286;104.306;2023-12-20T01:01:00;99366.94;;;-32.64;33.05
77077;BME280;66003;52.286;104.306;2023-12-20T01:03:26;99361.78;;;-32.76;33.25
77077;BME280;66003;52.286;104.306;2023-12-20T01:05:53;99347.59;;;-32.68;33.00
77077;BME280;66003;52.286;104.306;2023-12-20T01:08:20;99356.91;;;-32.61;33.12
77077;BME280;66003;52.286;104.306;2023-12-20T01:10:46;99354.41;;;-32.55;33.14
77077;BME280;66003;52.286;104.306;2023-12-20T01:13:12;99345.22;;;-32.47;33.29
77077;BME280;66003;52.286;104.306;2023-12-20T01:15:39;99360.75;;;-32.93;33.39
77077;BME280;66003;52.286;104.306;2023-12-20T01:18:05;99361.00;;;-32.72;33.67
77077;BME280;66003;52.286;104.306;2023-12-20T01:20:31;99354.28;;;-32.70;33.38
77077;BME280;66003;52.286;104.306;2023-12-20T01:22:57;99350.88;;;-32.75;33.10
77077;BME280;66003;52.286;104.306;2023-12-20T01:25:24;99340.81;;;-32.75;33.26
77077;BME280;66003;52.286;104.306;2023-12-20T01:27:50;99337.56;;;-32.63;33.33
77077;BME280;66003;52.286;104.306;2023-12-20T01:30:16;99339.38;;;-32.46;33.45
77077;BME280;66003;52.286;104.306;2023-12-20T01:32:42;99335.47;;;-32.13;33.00
77077;BME280;66003;52.286;104.306;2023-12-20T01:35:09;99328.06;;;-31.92;33.02
77077;BME280;66003;52.286;104.306;2023-12-20T01:37:35;99329.94;;;-31.54;33.46
77077;BME280;66003;52.286;104.306;2023-12-20T01:40:01;99336.00;;;-31.14;33.52
77077;BME280;66003;52.286;104.306;2023-12-20T01:42:29;99318.44;;;-30.69;33.32
77077;BME280;66003;52.286;104.306;2023-12-20T01:44:55;99318.50;;;-30.03;33.24
77077;BME280;66003;52.286;104.306;2023-12-20T01:47:22;99298.94;;;-29.36;33.05
77077;BME280;66003;52.286;104.306;2023-12-20T01:49:48;99308.72;;;-28.60;32.63
77077;BME280;66003;52.286;104.306;2023-12-20T01:52:15;99298.25;;;-28.16;31.75
77077;BME280;66003;52.286;104.306;2023-12-20T01:54:42;99297.50;;;-27.38;31.64
77077;BME280;66003;52.286;104.306;2023-12-20T01:57:09;99278.97;;;-26.79;32.07
77077;BME280;66003;52.286;104.306;2023-12-20T01:59:37;99277.81;;;-26.00;32.08
77077;BME280;66003;52.286;104.306;2023-12-20T02:02:05;99275.91;;;-25.43;30.80
77077;BME280;66003;52.286;104.306;2023-12-20T02:04:33;99260.34;;;-24.87;30.40
77077;BME280;66003;52.286;104.306;2023-12-20T02:06:59;99263.19;;;-24.24;30.09
77077;BME280;66003;52.286;104.306;2023-12-20T02:09:26;99262.59;;;-23.64;31.29
77077;BME280;66003;52.286;104.306;2023-12-20T02:11:54;99262.94;;;-23.47;31.15
77077;BME280;66003;52.286;104.306;2023-12-20T02:14:20;99259.47;;;-23.44;31.34
77077;BME280;66003;52.286;104.306;2023-12-20T02:16:46;99255.06;;;-23.39;29.67
77077;BME280;66003;52.286;104.306;2023-12-20T02:19:14;99237.50;;;-23.21;30.27
77077;BME280;66003;52.286;104.306;2023-12-20T02:21:41;99235.44;;;-23.08;31.23
77077;BME280;66003;52.286;104.306;2023-12-20T02:24:07;99237.69;;;-22.97;29.43
77077;BME280;66003;52.286;104.306;2023-12-20T02:26:34;99223.28;;;-22.72;28.93
77077;BME280;66003;52.286;104.306;2023-12-20T02:29:00;99238.03;;;-22.52;27.94
77077;BME280;66003;52.286;104.306;2023-12-20T02:31:27;99235.47;;;-21.98;30.29
77077;BME280;66003;52.286;104.306;2023-12-20T02:33:53;99230.25;;;-21.95;30.21
77077;BME280;66003;52.286;104.306;2023-12-20T02:36:19;99243.00;;;-21.93;29.88
77077;BME280;66003;52.286;104.306;2023-12-20T02:38:45;99235.19;;;-22.15;30.08
77077;BME280;66003;52.286;104.306;2023-12-20T02:41:12;99228.50;;;-22.21;29.94
77077;BME280;66003;52.286;104.306;2023-12-20T02:43:39;99232.41;;;-22.36;29.21
77077;BME280;66003;52.286;104.306;2023-12-20T02:46:05;99232.41;;;-23.22;29.55
77077;BME280;66003;52.286;104.306;2023-12-20T02:48:31;99236.16;;;-24.34;29.89
77077;BME280;66003;52.286;104.306;2023-12-20T02:50:57;99238.97;;;-25.23;29.93
77077;BME280;66003;52.286;104.306;2023-12-20T02:53:23;99233.34;;;-25.84;31.17
77077;BME280;66003;52.286;104.306;2023-12-20T02:55:49;99227.19;;;-26.21;31.53
77077;BME280;66003;52.286;104.306;2023-12-20T02:58:16;99226.13;;;-26.60;30.61
77077;BME280;66003;52.286;104.306;2023-12-20T03:00:43;99234.28;;;-26.97;30.47
77077;BME280;66003;52.286;104.306;2023-12-20T03:03:10;99221.63;;;-27.03;30.85
77077;BME280;66003;52.286;104.306;2023-12-20T03:05:36;99204.75;;;-27.08;31.17
77077;BME280;66003;52.286;104.306;2023-12-20T03:08:02;99209.78;;;-27.05;31.48
77077;BME280;66003;52.286;104.306;2023-12-20T03:10:28;99204.78;;;-27.11;31.31
77077;BME280;66003;52.286;104.306;2023-12-20T03:12:54;99197.19;;;-27.15;31.18
77077;BME280;66003;52.286;104.306;2023-12-20T03:15:20;99205.31;;;-26.87;31.83
77077;BME280;66003;52.286;104.306;2023-12-20T03:17:46;99200.81;;;-26.69;32.33
77077;BME280;66003;52.286;104.306;2023-12-20T03:20:13;99192.56;;;-26.85;31.91
77077;BME280;66003;52.286;104.306;2023-12-20T03:22:39;99200.38;;;-26.99;31.10
77077;BME280;66003;52.286;104.306;2023-12-20T03:25:05;99199.44;;;-26.92;32.13
77077;BME280;66003;52.286;104.306;2023-12-20T03:27:32;99193.50;;;-26.92;32.08
77077;BME280;66003;52.286;104.306;2023-12-20T03:29:58;99192.03;;;-27.07;30.91
77077;BME280;66003;52.286;104.306;2023-12-20T03:32:24;99191.97;;;-27.05;31.25
77077;BME280;66003;52.286;104.306;2023-12-20T03:34:50;99192.81;;;-27.05;31.14
77077;BME280;66003;52.286;104.306;2023-12-20T03:37:17;99175.78;;;-26.98;31.27
77077;BME280;66003;52.286;104.306;2023-12-20T03:39:43;99175.75;;;-26.95;32.28
77077;BME280;66003;52.286;104.306;2023-12-20T03:42:09;99187.63;;;-26.94;32.58
77077;BME280;66003;52.286;104.306;2023-12-20T03:44:38;99168.19;;;-27.01;32.14
77077;BME280;66003;52.286;104.306;2023-12-20T03:47:05;99162.28;;;-27.02;31.97
77077;BME280;66003;52.286;104.306;2023-12-20T03:49:32;99170.56;;;-26.88;32.17
77077;BME280;66003;52.286;104.306;2023-12-20T03:51:58;99152.53;;;-26.74;32.60
77077;BME280;66003;52.286;104.306;2023-12-20T03:54:25;99139.47;;;-26.53;32.79
77077;BME280;66003;52.286;104.306;2023-12-20T03:56:51;99145.81;;;-26.29;32.60
77077;BME280;66003;52.286;104.306;2023-12-20T03:59:18;99136.00;;;-26.01;32.89
77077;BME280;66003;52.286;104.306;2023-12-20T04:01:44;99133.44;;;-25.99;32.73
77077;BME280;66003;52.286;104.306;2023-12-20T04:04:11;99128.81;;;-25.81;32.83
77077;BME280;66003;52.286;104.306;2023-12-20T04:06:38;99126.81;;;-25.65;33.07
77077;BME280;66003;52.286;104.306;2023-12-20T04:09:04;99120.72;;;-25.59;32.76
77077;BME280;66003;52.286;104.306;2023-12-20T04:11:30;99114.50;;;-25.48;33.00
77077;BME280;66003;52.286;104.306;2023-12-20T04:13:56;99120.38;;;-25.44;33.13
77077;BME280;66003;52.286;104.306;2023-12-20T04:16:22;99118.53;;;-25.38;33.23
77077;BME280;66003;52.286;104.306;2023-12-20T04:18:49;99102.34;;;-25.35;33.12
77077;BME280;66003;52.286;104.306;2023-12-20T04:21:15;99086.97;;;-25.32;33.00
77077;BME280;66003;52.286;104.306;2023-12-20T04:23:41;99071.56;;;-25.27;32.78
77077;BME280;66003;52.286;104.306;2023-12-20T04:26:07;99069.81;;;-25.25;32.84
77077;BME280;66003;52.286;104.306;2023-12-20T04:28:33;99069.47;;;-25.10;32.56
77077;BME280;66003;52.286;104.306;2023-12-20T04:30:59;99051.34;;;-25.00;32.74
77077;BME280;66003;52.286;104.306;2023-12-20T04:33:26;99041.03;;;-24.93;33.12
77077;BME280;66003;52.286;104.306;2023-12-20T04:35:52;99044.22;;;-24.85;32.98
77077;BME280;66003;52.286;104.306;2023-12-20T04:38:18;99049.78;;;-24.70;33.35
77077;BME280;66003;52.286;104.306;2023-12-20T04:40:44;99050.59;;;-24.69;32.92
77077;BME280;66003;52.286;104.306;2023-12-20T04:43:10;99054.47;;;-24.54;33.66
77077;BME280;66003;52.286;104.306;2023-12-20T04:45:36;99043.41;;;-24.55;33.57
77077;BME280;66003;52.286;104.306;2023-12-20T04:48:04;99052.78;;;-24.56;32.92
77077;BME280;66003;52.286;104.306;2023-12-20T04:50:30;99036.50;;;-24.51;32.76
77077;BME280;66003;52.286;104.306;2023-12-20T04:52:56;99032.31;;;-24.54;32.79
77077;BME280;66003;52.286;104.306;2023-12-20T04:55:22;99029.34;;;-24.37;33.20
77077;BME280;66003;52.286;104.306;2023-12-20T04:57:49;99036.13;;;-24.36;33.03
77077;BME280;66003;52.286;104.306;2023-12-20T05:00:15;99033.56;;;-24.36;33.28
77077;BME280;66003;52.286;104.306;2023-12-20T05:02:41;99024.84;;;-24.29;33.29
77077;BME280;66003;52.286;104.306;2023-12-20T05:05:08;99015.13;;;-24.16;33.64
77077;BME280;66003;52.286;104.306;2023-12-20T05:07:34;99017.47;;;-24.09;33.32
77077;BME280;66003;52.286;104.306;2023-12-20T05:10:00;99020.06;;;-24.10;33.08
77077;BME280;66003;52.286;104.306;2023-12-20T05:12:27;99009.16;;;-24.15;33.07
77077;BME280;66003;52.286;104.306;2023-12-20T05:14:53;99013.31;;;-24.11;32.63
77077;BME280;66003;52.286;104.306;2023-12-20T05:17:19;99001.94;;;-24.01;33.76
77077;BME280;66003;52.286;104.306;2023-12-20T05:19:46;99001.91;;;-24.00;33.55
77077;BME280;66003;52.286;104.306;2023-12-20T05:22:12;98995.22;;;-24.05;33.38
77077;BME280;66003;52.286;104.306;2023-12-20T05:24:38;98985.09;;;-24.08;32.94
77077;BME280;66003;52.286;104.306;2023-12-20T05:27:05;98974.81;;;-24.07;32.47
77077;BME280;66003;52.286;104.306;2023-12-20T05:29:31;98979.72;;;-23.99;32.97
77077;BME280;66003;52.286;104.306;2023-12-20T05:31:58;98975.69;;;-24.08;32.74
77077;BME280;66003;52.286;104.306;2023-12-20T05:34:24;98969.44;;;-23.98;32.89
77077;BME280;66003;52.286;104.306;2023-12-20T05:36:50;98965.47;;;-24.08;32.66
77077;BME280;66003;52.286;104.306;2023-12-20T05:39:17;98970.69;;;-24.11;32.88
77077;BME280;66003;52.286;104.306;2023-12-20T05:41:43;98971.91;;;-23.95;33.39
77077;BME280;66003;52.286;104.306;2023-12-20T05:44:09;98972.41;;;-23.82;33.60
77077;BME280;66003;52.286;104.306;2023-12-20T05:46:36;98969.31;;;-23.64;33.93
77077;BME280;66003;52.286;104.306;2023-12-20T05:49:02;98966.94;;;-23.43;34.19
77077;BME280;66003;52.286;104.306;2023-12-20T05:51:28;98949.81;;;-23.41;34.28
77077;BME280;66003;52.286;104.306;2023-12-20T05:53:54;98945.41;;;-23.38;33.59
77077;BME280;66003;52.286;104.306;2023-12-20T05:56:21;98939.47;;;-23.38;33.76
77077;BME280;66003;52.286;104.306;2023-12-20T05:58:47;98936.72;;;-23.32;33.60
77077;BME280;66003;52.286;104.306;2023-12-20T06:01:17;98943.53;;;-23.31;33.36
77077;BME280;66003;52.286;104.306;2023-12-20T06:03:43;98929.44;;;-23.18;33.75
77077;BME280;66003;52.286;104.306;2023-12-20T06:06:09;98925.16;;;-23.18;33.77
77077;BME280;66003;52.286;104.306;2023-12-20T06:08:36;98934.75;;;-23.24;33.06
77077;BME280;66003;52.286;104.306;2023-12-20T06:11:02;98939.78;;;-23.21;33.92
77077;BME280;66003;52.286;104.306;2023-12-20T06:13:28;98942.25;;;-23.18;33.88
77077;BME280;66003;52.286;104.306;2023-12-20T06:15:55;98939.31;;;-23.07;33.92
77077;BME280;66003;52.286;104.306;2023-12-20T06:18:21;98944.69;;;-23.15;33.55
77077;BME280;66003;52.286;104.306;2023-12-20T06:20:48;98943.66;;;-23.10;33.80
77077;BME280;66003;52.286;104.306;2023-12-20T06:23:16;98933.94;;;-23.00;34.24
77077;BME280;66003;52.286;104.306;2023-12-20T06:25:42;98931.38;;;-23.00;34.24
77077;BME280;66003;52.286;104.306;2023-12-20T06:28:08;98939.91;;;-22.99;34.02
77077;BME280;66003;52.286;104.306;2023-12-20T06:30:36;98942.94;;;-22.88;34.48
77077;BME280;66003;52.286;104.306;2023-12-20T06:33:02;98927.88;;;-22.97;33.92
77077;BME280;66003;52.286;104.306;2023-12-20T06:35:28;98922.03;;;-23.01;34.24
77077;BME280;66003;52.286;104.306;2023-12-20T06:37:55;98925.19;;;-22.93;34.11
77077;BME280;66003;52.286;104.306;2023-12-20T06:40:21;98921.38;;;-22.81;34.72
77077;BME280;66003;52.286;104.306;2023-12-20T06:42:47;98917.19;;;-22.84;34.07
77077;BME280;66003;52.286;104.306;2023-12-20T06:45:13;98920.59;;;-22.83;33.77
77077;BME280;66003;52.286;104.306;2023-12-20T06:47:40;98914.78;;;-22.88;33.60
77077;BME280;66003;52.286;104.306;2023-12-20T06:50:06;98912.13;;;-22.85;34.05
77077;BME280;66003;52.286;104.306;2023-12-20T06:52:34;98916.25;;;-22.81;33.84
77077;BME280;66003;52.286;104.306;2023-12-20T06:55:01;98915.34;;;-22.80;34.16
77077;BME280;66003;52.286;104.306;2023-12-20T06:57:29;98910.91;;;-22.75;34.51
77077;BME280;66003;52.286;104.306;2023-12-20T06:59:56;98908.84;;;-22.65;34.62
77077;BME280;66003;52.286;104.306;2023-12-20T07:02:23;98908.91;;;-22.67;34.42
77077;BME280;66003;52.286;104.306;2023-12-20T07:04:49;98904.47;;;-22.62;34.72
77077;BME280;66003;52.286;104.306;2023-12-20T07:07:16;98901.00;;;-22.61;34.26
77077;BME280;66003;52.286;104.306;2023-12-20T07:09:42;98908.59;;;-22.58;34.35
77077;BME280;66003;52.286;104.306;2023-12-20T07:12:09;98891.25;;;-22.51;34.64
77077;BME280;66003;52.286;104.306;2023-12-20T07:14:35;98893.38;;;-22.62;34.33
77077;BME280;66003;52.286;104.306;2023-12-20T07:17:01;98886.63;;;-22.65;33.84
77077;BME280;66003;52.286;104.306;2023-12-20T07:19:28;98897.66;;;-22.63;34.32
77077;BME280;66003;52.286;104.306;2023-12-20T07:21:54;98882.34;;;-22.64;34.14
77077;BME280;66003;52.286;104.306;2023-12-20T07:24:20;98882.41;;;-22.66;34.17
77077;BME280;66003;52.286;104.306;2023-12-20T07:26:47;98882.34;;;-22.64;34.50
77077;BME280;66003;52.286;104.306;2023-12-20T07:29:13;98868.56;;;-22.60;34.19
77077;BME280;66003;52.286;104.306;2023-12-20T07:31:39;98882.00;;;-22.55;34.44
77077;BME280;66003;52.286;104.306;2023-12-20T07:34:05;98879.00;;;-22.66;34.05
77077;BME280;66003;52.286;104.306;2023-12-20T07:36:32;98883.34;;;-22.68;34.14
77077;BME280;66003;52.286;104.306;2023-12-20T07:38:58;98877.28;;;-22.66;34.58
77077;BME280;66003;52.286;104.306;2023-12-20T07:41:24;98874.75;;;-22.67;34.07
77077;BME280;66003;52.286;104.306;2023-12-20T07:43:50;98872.44;;;-22.74;34.15
77077;BME280;66003;52.286;104.306;2023-12-20T07:46:21;98882.63;;;-22.72;34.03
77077;BME280;66003;52.286;104.306;2023-12-20T07:48:51;98877.19;;;-22.88;34.18
77077;BME280;66003;52.286;104.306;2023-12-20T07:51:17;98883.72;;;-23.04;33.84
77077;BME280;66003;52.286;104.306;2023-12-20T07:53:43;98879.84;;;-22.91;34.48
77077;BME280;66003;52.286;104.306;2023-12-20T07:56:16;98883.53;;;-22.98;34.13
77077;BME280;66003;52.286;104.306;2023-12-20T07:58:43;98871.41;;;-22.93;34.21
77077;BME280;66003;52.286;104.306;2023-12-20T08:01:11;98862.22;;;-22.98;34.13
77077;BME280;66003;52.286;104.306;2023-12-20T08:03:38;98872.34;;;-22.95;34.56
77077;BME280;66003;52.286;104.306;2023-12-20T08:06:04;98862.53;;;-23.07;34.37
77077;BME280;66003;52.286;104.306;2023-12-20T08:08:31;98868.06;;;-22.95;34.51
77077;BME280;66003;52.286;104.306;2023-12-20T08:10:57;98868.25;;;-23.01;34.23
77077;BME280;66003;52.286;104.306;2023-12-20T08:13:25;98869.19;;;-23.03;34.74
77077;BME280;66003;52.286;104.306;2023-12-20T08:15:52;98886.59;;;-23.13;34.29
77077;BME280;66003;52.286;104.306;2023-12-20T08:18:21;98876.78;;;-23.25;34.23
77077;BME280;66003;52.286;104.306;2023-12-20T08:20:49;98866.75;;;-23.31;34.58
77077;BME280;66003;52.286;104.306;2023-12-20T08:23:16;98871.69;;;-23.27;35.08
77077;BME280;66003;52.286;104.306;2023-12-20T08:25:43;98870.16;;;-23.31;35.51
77077;BME280;66003;52.286;104.306;2023-12-20T08:28:10;98868.13;;;-23.48;35.52
77077;BME280;66003;52.286;104.306;2023-12-20T08:30:37;98866.63;;;-23.53;35.71
77077;BME280;66003;52.286;104.306;2023-12-20T08:33:03;98865.78;;;-23.54;35.82
77077;BME280;66003;52.286;104.306;2023-12-20T08:35:30;98866.69;;;-23.81;35.10
77077;BME280;66003;52.286;104.306;2023-12-20T08:37:56;98859.59;;;-23.73;35.39
77077;BME280;66003;52.286;104.306;2023-12-20T08:40:22;98861.63;;;-23.83;35.13
77077;BME280;66003;52.286;104.306;2023-12-20T08:42:49;98859.84;;;-23.80;35.17
77077;BME280;66003;52.286;104.306;2023-12-20T08:45:15;98856.81;;;-23.92;34.91
77077;BME280;66003;52.286;104.306;2023-12-20T08:47:41;98860.94;;;-23.88;34.88
77077;BME280;66003;52.286;104.306;2023-12-20T08:50:10;98856.66;;;-23.87;35.65
77077;BME280;66003;52.286;104.306;2023-12-20T08:52:36;98861.13;;;-23.94;34.94
77077;BME280;66003;52.286;104.306;2023-12-20T08:55:02;98856.06;;;-23.95;35.13
77077;BME280;66003;52.286;104.306;2023-12-20T08:57:30;98853.13;;;-23.83;35.27
77077;BME280;66003;52.286;104.306;2023-12-20T08:59:57;98847.59;;;-23.71;35.43
77077;BME280;66003;52.286;104.306;2023-12-20T09:02:24;98850.22;;;-23.72;35.29
77077;BME280;66003;52.286;104.306;2023-12-20T09:04:50;98839.97;;;-23.72;35.42
77077;BME280;66003;52.286;104.306;2023-12-20T09:07:26;98840.81;;;-23.72;35.37
77077;BME280;66003;52.286;104.306;2023-12-20T09:09:53;98835.72;;;-23.72;35.14
77077;BME280;66003;52.286;104.306;2023-12-20T09:12:20;98846.47;;;-23.62;35.38
77077;BME280;66003;52.286;104.306;2023-12-20T09:14:47;98841.53;;;-23.67;35.18
77077;BME280;66003;52.286;104.306;2023-12-20T09:17:13;98849.88;;;-23.62;35.50
77077;BME280;66003;52.286;104.306;2023-12-20T09:19:39;98831.97;;;-23.62;35.31
77077;BME280;66003;52.286;104.306;2023-12-20T09:22:06;98837.97;;;-23.63;35.33
77077;BME280;66003;52.286;104.306;2023-12-20T09:24:32;98831.84;;;-23.59;35.84
77077;BME280;66003;52.286;104.306;2023-12-20T09:26:58;98838.53;;;-23.55;35.75
77077;BME280;66003;52.286;104.306;2023-12-20T09:29:24;98834.31;;;-23.56;35.70
77077;BME280;66003;52.286;104.306;2023-12-20T09:31:50;98832.63;;;-23.57;35.92
77077;BME280;66003;52.286;104.306;2023-12-20T09:34:17;98831.84;;;-23.59;35.85
77077;BME280;66003;52.286;104.306;2023-12-20T09:36:43;98831.88;;;-23.60;35.79
77077;BME280;66003;52.286;104.306;2023-12-20T09:39:14;98838.63;;;-23.58;35.82
77077;BME280;66003;52.286;104.306;2023-12-20T09:41:44;98838.72;;;-23.61;36.21
77077;BME280;66003;52.286;104.306;2023-12-20T09:44:14;98835.28;;;-23.60;35.79
77077;BME280;66003;52.286;104.306;2023-12-20T09:46:42;98837.34;;;-23.69;35.44
77077;BME280;66003;52.286;104.306;2023-12-20T09:49:09;98828.91;;;-23.73;35.66
77077;BME280;66003;52.286;104.306;2023-12-20T09:51:36;98823.22;;;-23.81;35.64
77077;BME280;66003;52.286;104.306;2023-12-20T09:54:05;98822.44;;;-23.83;36.05
77077;BME280;66003;52.286;104.306;2023-12-20T09:56:31;98828.44;;;-23.84;35.79
77077;BME280;66003;52.286;104.306;2023-12-20T09:58:58;98813.25;;;-23.89;35.65
77077;BME280;66003;52.286;104.306;2023-12-20T10:01:25;98824.25;;;-23.87;35.98
77077;BME280;66003;52.286;104.306;2023-12-20T10:03:54;98814.28;;;-23.94;36.03
77077;BME280;66003;52.286;104.306;2023-12-20T10:06:23;98825.19;;;-23.89;36.30
77077;BME280;66003;52.286;104.306;2023-12-20T10:08:49;98825.81;;;-23.83;36.21
77077;BME280;66003;52.286;104.306;2023-12-20T10:11:16;98820.72;;;-23.83;36.16
77077;BME280;66003;52.286;104.306;2023-12-20T10:13:43;98827.53;;;-23.83;35.90
77077;BME280;66003;52.286;104.306;2023-12-20T10:16:09;98823.13;;;-24.04;35.83
77077;BME280;66003;52.286;104.306;2023-12-20T10:18:35;98821.19;;;-24.24;35.23
77077;BME280;66003;52.286;104.306;2023-12-20T10:21:01;98821.63;;;-24.39;35.66
77077;BME280;66003;52.286;104.306;2023-12-20T10:23:29;98810.19;;;-24.56;35.68
77077;BME280;66003;52.286;104.306;2023-12-20T10:26:00;98810.63;;;-24.69;36.16
77077;BME280;66003;52.286;104.306;2023-12-20T10:28:26;98809.09;;;-24.75;36.66
77077;BME280;66003;52.286;104.306;2023-12-20T10:30:55;98797.28;;;-24.79;36.48
77077;BME280;66003;52.286;104.306;2023-12-20T10:33:28;98796.06;;;-24.95;36.77
77077;BME280;66003;52.286;104.306;2023-12-20T10:35:55;98803.13;;;-25.05;36.61
77077;BME280;66003;52.286;104.306;2023-12-20T10:38:22;98802.06;;;-25.28;36.91
77077;BME280;66003;52.286;104.306;2023-12-20T10:40:54;98795.91;;;-25.20;36.61
77077;BME280;66003;52.286;104.306;2023-12-20T10:43:24;98793.75;;;-25.35;36.75
77077;BME280;66003;52.286;104.306;2023-12-20T10:45:52;98796.81;;;-25.53;36.93
77077;BME280;66003;52.286;104.306;2023-12-20T10:48:18;98792.53;;;-25.53;36.73
77077;BME280;66003;52.286;104.306;2023-12-20T10:50:45;98797.00;;;-25.61;36.61
77077;BME280;66003;52.286;104.306;2023-12-20T10:53:11;98800.44;;;-25.62;36.64
77077;BME280;66003;52.286;104.306;2023-12-20T10:55:38;98807.34;;;-25.65;36.44
77077;BME280;66003;52.286;104.306;2023-12-20T10:58:07;98810.84;;;-25.70;36.43
77077;BME280;66003;52.286;104.306;2023-12-20T11:00:43;98811.75;;;-25.72;36.37
77077;BME280;66003;52.286;104.306;2023-12-20T11:03:12;98807.63;;;-25.76;36.72
77077;BME280;66003;52.286;104.306;2023-12-20T11:05:58;98799.28;;;-25.83;36.76
77077;BME280;66003;52.286;104.306;2023-12-20T11:08:41;98806.31;;;-25.92;36.65
77077;BME280;66003;52.286;104.306;2023-12-20T11:11:19;98815.41;;;-25.82;36.60
77077;BME280;66003;52.286;104.306;2023-12-20T11:14:03;98802.09;;;-25.93;36.90
77077;BME280;66003;52.286;104.306;2023-12-20T11:16:32;98811.44;;;-25.94;36.61
77077;BME280;66003;52.286;104.306;2023-12-20T11:19:05;98806.28;;;-25.91;36.97
77077;BME280;66003;52.286;104.306;2023-12-20T11:21:31;98796.78;;;-25.86;36.65
77077;BME280;66003;52.286;104.306;2023-12-20T11:23:57;98799.16;;;-25.78;36.79
77077;BME280;66003;52.286;104.306;2023-12-20T11:26:28;98798.00;;;-25.65;37.08
77077;BME280;66003;52.286;104.306;2023-12-20T11:29:36;98792.88;;;-25.34;37.34
77077;BME280;66003;52.286;104.306;2023-12-20T11:32:04;98775.50;;;-25.20;37.01
77077;BME280;66003;52.286;104.306;2023-12-20T11:34:58;98783.66;;;-25.07;36.87
77077;BME280;66003;52.286;104.306;2023-12-20T11:37:35;98774.63;;;-24.89;36.71
77077;BME280;66003;52.286;104.306;2023-12-20T11:40:06;98773.16;;;-24.69;36.63
77077;BME280;66003;52.286;104.306;2023-12-20T11:42:39;98762.97;;;-24.42;36.63
77077;BME280;66003;52.286;104.306;2023-12-20T11:45:18;98745.75;;;-24.36;36.79
77077;BME280;66003;52.286;104.306;2023-12-20T11:47:49;98764.47;;;-24.09;37.07
77077;BME280;66003;52.286;104.306;2023-12-20T11:50:19;98757.56;;;-24.05;36.60
77077;BME280;66003;52.286;104.306;2023-12-20T11:52:45;98747.16;;;-23.99;36.25
77077;BME280;66003;52.286;104.306;2023-12-20T11:55:12;98747.31;;;-24.05;36.64
77077;BME280;66003;52.286;104.306;2023-12-20T11:57:38;98744.69;;;-24.02;36.35
77077;BME280;66003;52.286;104.306;2023-12-20T12:00:05;98753.41;;;-23.83;36.62
77077;BME280;66003;52.286;104.306;2023-12-20T12:02:32;98747.38;;;-23.80;36.63
77077;BME280;66003;52.286;104.306;2023-12-20T12:04:59;98754.88;;;-23.76;36.66
77077;BME280;66003;52.286;104.306;2023-12-20T12:07:26;98756.38;;;-23.70;36.34
77077;BME280;66003;52.286;104.306;2023-12-20T12:09:52;98754.81;;;-23.74;36.56
77077;BME280;66003;52.286;104.306;2023-12-20T12:12:19;98751.69;;;-23.83;36.65
77077;BME280;66003;52.286;104.306;2023-12-20T12:14:46;98755.56;;;-23.71;36.49
77077;BME280;66003;52.286;104.306;2023-12-20T12:17:13;98759.75;;;-23.68;36.53
77077;BME280;66003;52.286;104.306;2023-12-20T12:19:40;98751.31;;;-23.72;36.58
77077;BME280;66003;52.286;104.306;2023-12-20T12:22:16;98747.69;;;-23.65;36.91
77077;BME280;66003;52.286;104.306;2023-12-20T12:24:47;98748.56;;;-23.66;36.50
77077;BME280;66003;52.286;104.306;2023-12-20T12:27:13;98752.84;;;-23.66;36.45
77077;BME280;66003;52.286;104.306;2023-12-20T12:29:40;98755.72;;;-23.75;36.41